Valletta, Malta

7:45 AM CEST on May 26, 2015 (GMT +0200)
Zabbar | | Change Station
CLOSE
Current Station
Personal Weather Station
Location: Zabbar,
Elevation: 138 ft
Nearby Weather Stations

Elev 138 ft 35.88 °N, 14.54 °E | Updated 7 seconds ago

Mostly Cloudy
Mostly Cloudy
67.6 °F
Feels Like 67.6 °F
N
0.0
Wind Variable Wind from SE
Gusts 0.0 mph

Today
High -- | Low -- °F
--% Chance of Precip.
Yesterday
High -- | Low -- °F
Precip. -- in
5:49 AM 8:08 PM
First Quarter, 55% visible
Pressure 29.80 in
Visibility 3.7 miles
Clouds Mostly Cloudy 900 ft
Dew Point 64 °F
Humidity 89%
Rainfall 0.00 in
Snow Depth Not available.
UV 1.0 out of 12
Pollen Not available.
Air Quality Not available.
Flu Activity Not available.
METAR LMML 260515Z 06008KT 6000 BKN009 18/17 Q1009 BECMG 9000 SCT008

More Conditions Fewer Conditions

Pressure 29.80 in
Visibility 3.7 miles
Clouds Mostly Cloudy 900 ft
Dew Point 64 °F
Humidity 89%
Rainfall 0.00 in
Snow Depth Not available.
UV 1.0 out of 12
Pollen Not available.
Air Quality Not available.
Flu Activity Not available.
METAR LMML 260515Z 06008KT 6000 BKN009 18/17 Q1009 BECMG 9000 SCT008

More Conditions Fewer Conditions

10-Day Weather Forecast

Almanac

Astronomy

May. 26, 2015 Rise Set
Actual Time
Civil Twilight
Nautical Twilight
Astronomical Twilight
Moon
Length of Visible Light
Length of Day
Tomorrow will be .
, % of the Moon is Illuminated

Today's Extremes

Country Highs Country Lows

Community

WunderPhotos

Upload Photos

1,824,289 photos uploaded!

WunderBlogs® & News

Nearby

Air Quality

  Air Quality AQ Index Pollutant
Not available.

Snow Depth

Station Depth Elevation

Earthquake Activity

City Distance Mag. Time & Date
Minimum magnitude displayed is 2.5.

Coastal Water Temperatures

Place Temperature

Stations

Nearby Weather Stations

Station Location Temp. Windchill Dew Point Humidity Wind Precip. Elev Updated Type